Time;durP1;ratioP1;P1;durP2;ratioP2;P2;SDS_P1;SDS_P2;PMS_P1;PMS_P2;Temp;Humidity;BMP_temperature;BMP_pressure;BME280_temperature;BME280_humidity;BME280_pressure;Samples;Min_cycle;Max_cycle;Signal;HPM_P1;HPM_P2
2023/12/27 00:02:05;;;;;;;79.40;74.90;;;0.30;99.90;;;;;;5044838;28;20041;-75
2023/12/27 00:04:31;;;;;;;90.47;84.80;;;0.30;99.90;;;;;;5030796;28;20635;-78
2023/12/27 00:06:56;;;;;;;115.03;108.37;;;0.30;99.90;;;;;;5044835;28;20043;-78
2023/12/27 00:09:22;;;;;;;100.80;94.87;;;0.20;99.90;;;;;;5042532;28;20084;-77
2023/12/27 00:11:49;;;;;;;73.55;68.88;;;0.20;99.90;;;;;;5028622;28;20044;-77
2023/12/27 00:14:14;;;;;;;79.45;74.93;;;0.20;99.90;;;;;;5046454;28;20544;-77
2023/12/27 00:16:40;;;;;;;76.07;71.67;;;0.20;99.90;;;;;;5048728;28;20115;-76
2023/12/27 00:19:06;;;;;;;77.93;73.47;;;0.20;99.90;;;;;;5043650;28;20525;-77
2023/12/27 00:21:33;;;;;;;89.63;84.22;;;0.10;99.90;;;;;;5023062;28;20068;-77
2023/12/27 00:23:58;;;;;;;95.68;90.07;;;0.10;99.90;;;;;;5030837;28;20501;-77
2023/12/27 00:26:24;;;;;;;117.03;110.10;;;0.10;99.90;;;;;;5046620;28;20037;-77
2023/12/27 00:28:50;;;;;;;71.37;67.23;;;0.10;99.90;;;;;;5045836;28;20037;-77
2023/12/27 00:31:15;;;;;;;142.10;132.97;;;0.10;99.90;;;;;;5042731;28;20425;-78
2023/12/27 00:33:41;;;;;;;111.23;104.90;;;0.10;99.90;;;;;;5029189;28;20060;-78
2023/12/27 00:36:08;;;;;;;96.57;90.80;;;0.20;99.90;;;;;;5042743;28;20448;-77
2023/12/27 00:38:37;;;;;;;93.47;87.50;;;0.20;99.90;;;;;;5023920;28;20037;-77
2023/12/27 00:41:04;;;;;;;100.63;94.90;;;0.20;99.90;;;;;;5044003;28;20037;-78
2023/12/27 00:43:29;;;;;;;77.95;73.63;;;0.20;99.90;;;;;;5031318;28;20041;-78
2023/12/27 00:45:55;;;;;;;111.27;104.53;;;0.20;99.90;;;;;;5045002;28;20041;-77
2023/12/27 00:48:21;;;;;;;105.20;98.93;;;0.20;99.90;;;;;;5028416;28;20196;-77
2023/12/27 00:50:46;;;;;;;87.87;82.83;;;0.20;99.90;;;;;;5025101;28;20065;-78
2023/12/27 00:53:13;;;;;;;95.57;89.73;;;0.20;99.90;;;;;;5038757;28;20045;-77
2023/12/27 00:55:38;;;;;;;81.75;77.15;;;0.10;99.90;;;;;;5023714;28;20083;-77
2023/12/27 00:58:04;;;;;;;117.33;110.50;;;0.10;99.90;;;;;;5043882;28;20494;-77
2023/12/27 01:00:30;;;;;;;77.87;73.27;;;0.10;99.90;;;;;;5045942;28;20123;-77
2023/12/27 01:02:56;;;;;;;86.70;81.93;;;0.00;99.90;;;;;;5047332;28;20033;-77
2023/12/27 01:05:21;;;;;;;102.03;96.00;;;0.00;99.90;;;;;;5040578;28;20043;-78
2023/12/27 01:07:47;;;;;;;69.47;65.63;;;0.00;99.90;;;;;;5036300;28;20144;-77
2023/12/27 01:10:14;;;;;;;61.97;58.30;;;0.00;99.90;;;;;;5044679;28;20390;-77
2023/12/27 01:12:40;;;;;;;80.60;75.90;;;0.00;99.90;;;;;;5029602;28;20492;-77
2023/12/27 01:15:06;;;;;;;100.70;94.72;;;0.00;99.90;;;;;;5030234;28;20044;-77
2023/12/27 01:17:31;;;;;;;79.00;73.97;;;0.00;99.90;;;;;;5046706;28;20087;-77
2023/12/27 01:19:57;;;;;;;90.07;84.33;;;0.00;99.90;;;;;;5039950;28;20053;-77
2023/12/27 01:22:23;;;;;;;78.87;74.33;;;0.10;99.90;;;;;;5041636;28;20044;-77
2023/12/27 01:24:48;;;;;;;127.73;120.40;;;0.10;99.90;;;;;;5046556;28;20040;-76
2023/12/27 01:27:14;;;;;;;107.13;100.40;;;0.10;99.90;;;;;;5043838;28;20028;-77
2023/12/27 01:29:40;;;;;;;78.53;73.40;;;0.10;99.90;;;;;;5026690;28;20124;-78
2023/12/27 01:32:07;;;;;;;80.40;75.63;;;0.10;99.90;;;;;;5020206;28;20460;-78
2023/12/27 01:34:32;;;;;;;65.95;61.95;;;0.20;99.90;;;;;;5043989;28;20387;-77
2023/12/27 01:36:58;;;;;;;130.00;121.70;;;0.20;99.90;;;;;;5043987;28;20047;-78
2023/12/27 01:39:24;;;;;;;105.97;99.93;;;0.20;99.90;;;;;;5047719;28;20613;-77
2023/12/27 01:41:49;;;;;;;205.77;193.30;;;0.20;99.90;;;;;;5048317;28;20072;-78
2023/12/27 01:44:15;;;;;;;147.70;138.10;;;0.20;99.90;;;;;;5050772;28;20072;-77
2023/12/27 01:46:41;;;;;;;129.40;121.43;;;0.20;99.90;;;;;;5030861;28;20049;-77
2023/12/27 01:49:07;;;;;;;99.75;93.40;;;0.20;99.90;;;;;;5050393;28;20080;-77
2023/12/27 01:51:33;;;;;;;120.93;113.53;;;0.30;99.90;;;;;;5044128;28;20092;-77
2023/12/27 01:54:02;;;;;;;92.03;86.40;;;0.30;99.90;;;;;;5045147;28;20040;-79
2023/12/27 01:56:28;;;;;;;118.82;112.00;;;0.30;99.90;;;;;;5052082;28;20072;-77
2023/12/27 01:58:54;;;;;;;128.88;121.30;;;0.30;99.90;;;;;;5049152;28;20106;-78
2023/12/27 02:01:20;;;;;;;102.80;96.30;;;0.20;99.90;;;;;;5036957;28;20439;-77
2023/12/27 02:03:46;;;;;;;118.23;111.07;;;0.20;99.90;;;;;;5045281;28;20326;-77
2023/12/27 02:06:12;;;;;;;123.33;115.03;;;0.20;99.90;;;;;;5051621;28;20287;-78
2023/12/27 02:08:38;;;;;;;167.90;157.32;;;0.20;99.90;;;;;;5022257;28;20095;-78
2023/12/27 02:11:04;;;;;;;94.72;88.88;;;0.10;99.90;;;;;;5021510;28;20044;-78
2023/12/27 02:13:30;;;;;;;122.63;114.82;;;0.20;99.90;;;;;;5031130;28;20097;-78
2023/12/27 02:15:55;;;;;;;89.00;83.03;;;0.20;99.90;;;;;;5051099;28;20044;-79
2023/12/27 02:18:22;;;;;;;90.20;83.93;;;0.10;99.90;;;;;;5045835;28;20049;-78
2023/12/27 02:20:47;;;;;;;85.78;80.07;;;0.10;99.90;;;;;;5049955;28;20049;-78
2023/12/27 02:23:17;;;;;;;175.03;163.43;;;0.10;99.90;;;;;;5032269;28;20047;-78
2023/12/27 02:25:43;;;;;;;164.05;153.77;;;0.10;99.90;;;;;;5041001;28;20478;-78
2023/12/27 02:28:09;;;;;;;113.97;106.90;;;0.10;99.90;;;;;;5045257;28;20538;-78
2023/12/27 02:30:36;;;;;;;126.83;119.13;;;0.10;99.90;;;;;;5056546;28;20512;-78
2023/12/27 02:33:02;;;;;;;144.60;135.65;;;0.20;99.90;;;;;;5040953;28;20049;-78
2023/12/27 02:35:28;;;;;;;110.70;103.82;;;0.20;99.90;;;;;;5047194;28;20511;-77
2023/12/27 02:37:57;;;;;;;143.20;134.48;;;0.30;99.90;;;;;;5029515;28;20059;-78
2023/12/27 02:40:23;;;;;;;121.20;113.80;;;0.30;99.90;;;;;;5028644;28;20045;-78
2023/12/27 02:42:48;;;;;;;117.83;111.00;;;0.40;99.90;;;;;;5050725;28;20037;-78
2023/12/27 02:45:14;;;;;;;145.23;136.27;;;0.50;99.90;;;;;;5045878;28;20033;-78
2023/12/27 02:47:40;;;;;;;120.60;113.33;;;0.50;99.90;;;;;;5050560;28;20048;-78
2023/12/27 02:50:06;;;;;;;151.90;143.13;;;0.50;99.90;;;;;;5034393;28;20043;-77
2023/12/27 02:52:32;;;;;;;170.07;159.55;;;0.50;99.90;;;;;;5048619;28;20087;-78
2023/12/27 02:54:57;;;;;;;136.00;127.53;;;0.60;99.90;;;;;;5029817;28;20445;-78
2023/12/27 02:57:23;;;;;;;171.40;160.53;;;0.60;99.90;;;;;;5047894;28;20044;-78
2023/12/27 02:59:49;;;;;;;170.87;160.03;;;0.70;99.90;;;;;;5046989;28;20075;-77
2023/12/27 03:02:15;;;;;;;148.27;139.50;;;0.70;99.90;;;;;;5048245;28;20095;-77
2023/12/27 03:04:40;;;;;;;178.93;167.80;;;0.70;99.90;;;;;;5027761;28;20045;-77
2023/12/27 03:07:07;;;;;;;180.23;169.30;;;0.70;99.90;;;;;;5030403;28;20033;-77
2023/12/27 03:09:33;;;;;;;124.22;116.75;;;0.70;99.90;;;;;;5028168;28;20037;-78
2023/12/27 03:11:59;;;;;;;131.20;123.73;;;0.70;99.90;;;;;;5045982;28;20051;-78
2023/12/27 03:14:25;;;;;;;115.45;108.75;;;0.70;99.90;;;;;;5024984;28;20574;-78
2023/12/27 03:16:51;;;;;;;114.77;108.03;;;0.70;99.90;;;;;;5030844;28;20045;-77
2023/12/27 03:19:16;;;;;;;159.67;150.10;;;0.70;99.90;;;;;;5041347;28;20073;-77
2023/12/27 03:21:42;;;;;;;175.87;165.00;;;0.70;99.90;;;;;;5030517;28;20051;-77
2023/12/27 03:24:08;;;;;;;130.53;123.07;;;0.70;99.90;;;;;;5050168;28;20043;-77
2023/12/27 03:26:33;;;;;;;189.43;176.93;;;0.70;99.90;;;;;;5045870;28;20485;-77
2023/12/27 03:28:59;;;;;;;119.13;111.50;;;0.70;99.90;;;;;;5032723;28;20413;-77
2023/12/27 03:31:28;;;;;;;155.73;146.07;;;0.60;99.90;;;;;;5031760;28;20060;-77
2023/12/27 03:33:57;;;;;;;210.98;197.20;;;0.60;99.90;;;;;;5018500;28;20041;-78
2023/12/27 03:36:24;;;;;;;139.85;131.05;;;0.60;99.90;;;;;;5048580;28;20041;-77
2023/12/27 03:38:51;;;;;;;142.05;133.02;;;0.60;99.90;;;;;;5030912;28;20127;-78
2023/12/27 03:41:16;;;;;;;118.97;112.10;;;0.60;99.90;;;;;;5029446;28;20112;-78
2023/12/27 03:43:42;;;;;;;149.70;141.23;;;0.60;99.90;;;;;;5044930;28;20536;-76
2023/12/27 03:46:09;;;;;;;110.60;104.10;;;0.60;99.90;;;;;;5032267;28;20029;-77
2023/12/27 03:48:34;;;;;;;148.32;139.30;;;0.60;99.90;;;;;;5031455;28;20037;-77
2023/12/27 03:51:00;;;;;;;142.77;132.83;;;0.60;99.90;;;;;;5031011;28;20048;-77
2023/12/27 03:53:26;;;;;;;154.43;145.30;;;0.60;99.90;;;;;;5029598;28;20072;-77
2023/12/27 03:55:51;;;;;;;161.43;151.03;;;0.60;99.90;;;;;;5042436;28;20040;-77
2023/12/27 03:58:18;;;;;;;193.20;180.37;;;0.60;99.90;;;;;;5028294;28;20528;-78
2023/12/27 04:00:43;;;;;;;156.13;146.10;;;0.70;99.90;;;;;;5045374;28;20521;-77
2023/12/27 04:03:09;;;;;;;169.47;159.33;;;0.70;99.90;;;;;;5030233;28;20119;-78
2023/12/27 04:05:35;;;;;;;120.40;113.13;;;0.70;99.90;;;;;;5022631;28;20172;-77
2023/12/27 04:08:00;;;;;;;164.53;153.73;;;0.80;99.90;;;;;;5047525;28;20080;-77
2023/12/27 04:10:31;;;;;;;147.50;138.20;;;0.80;99.90;;;;;;5047803;28;20036;-77
2023/12/27 04:12:57;;;;;;;158.15;148.25;;;0.80;99.90;;;;;;5027114;28;20049;-77
2023/12/27 04:15:23;;;;;;;231.40;216.75;;;0.80;99.90;;;;;;5031607;28;20378;-78
2023/12/27 04:17:48;;;;;;;201.40;189.07;;;0.90;99.90;;;;;;5030737;28;20048;-78
2023/12/27 04:20:14;;;;;;;141.10;132.30;;;0.90;99.90;;;;;;5038873;28;20533;-77
2023/12/27 04:22:40;;;;;;;171.10;160.73;;;0.90;99.90;;;;;;5030838;28;20116;-77
2023/12/27 04:25:06;;;;;;;135.70;127.53;;;1.00;99.90;;;;;;5049747;28;20499;-78
2023/12/27 04:27:31;;;;;;;177.45;166.57;;;1.00;99.90;;;;;;5023498;28;20092;-77
2023/12/27 04:29:57;;;;;;;175.87;165.03;;;1.00;99.90;;;;;;5050100;28;20037;-77
2023/12/27 04:32:23;;;;;;;170.30;159.87;;;1.00;99.90;;;;;;5027289;28;20036;-77
2023/12/27 04:34:49;;;;;;;230.53;215.03;;;1.00;99.90;;;;;;5022071;28;20072;-77
2023/12/27 04:37:14;;;;;;;208.17;195.10;;;1.00;99.90;;;;;;5046674;28;20041;-77
2023/12/27 04:39:40;;;;;;;221.03;206.93;;;1.00;99.90;;;;;;5025934;28;20045;-77
2023/12/27 04:42:06;;;;;;;330.93;308.67;;;1.00;99.90;;;;;;5045631;28;20512;-77
2023/12/27 04:44:31;;;;;;;239.73;223.97;;;1.10;99.90;;;;;;5046926;28;20037;-78
2023/12/27 04:46:57;;;;;;;315.33;291.93;;;1.10;99.90;;;;;;5024320;28;20037;-77
2023/12/27 04:49:23;;;;;;;164.63;154.53;;;1.10;99.90;;;;;;5044489;28;20131;-77
2023/12/27 04:51:48;;;;;;;143.63;135.20;;;1.10;99.90;;;;;;5037731;28;20033;-77
2023/12/27 04:54:14;;;;;;;253.30;237.03;;;1.20;99.90;;;;;;5029798;28;20033;-78
2023/12/27 04:56:40;;;;;;;216.83;203.10;;;1.20;99.90;;;;;;5047212;28;20074;-77
2023/12/27 04:59:05;;;;;;;182.03;171.37;;;1.20;99.90;;;;;;5047424;28;20044;-77
2023/12/27 05:01:31;;;;;;;167.20;157.20;;;1.30;99.90;;;;;;5049684;28;20043;-77
2023/12/27 05:03:57;;;;;;;164.23;154.70;;;1.30;99.90;;;;;;5029487;28;20036;-77
2023/12/27 05:06:22;;;;;;;279.77;260.77;;;1.30;99.90;;;;;;5039612;28;20115;-77
2023/12/27 05:08:48;;;;;;;201.17;189.30;;;1.30;99.90;;;;;;5030484;28;20414;-77
2023/12/27 05:11:16;;;;;;;221.73;208.47;;;1.30;99.90;;;;;;5047331;28;20040;-77
2023/12/27 05:13:41;;;;;;;155.80;145.85;;;1.30;99.90;;;;;;5029692;28;20071;-77
2023/12/27 05:16:15;;;;;;;316.03;294.27;;;1.30;99.90;;;;;;5045934;28;20033;-77
2023/12/27 05:18:43;;;;;;;199.98;186.70;;;1.30;99.90;;;;;;5041273;28;20041;-77
2023/12/27 05:21:10;;;;;;;312.48;289.75;;;1.40;99.90;;;;;;5030418;28;20065;-77
2023/12/27 05:23:36;;;;;;;194.23;181.80;;;1.40;99.90;;;;;;5020359;28;20175;-77
2023/12/27 05:26:03;;;;;;;189.60;177.67;;;1.40;99.90;;;;;;5027995;28;20595;-77
2023/12/27 05:28:29;;;;;;;170.48;159.93;;;1.50;99.90;;;;;;5040992;28;20336;-77
2023/12/27 05:30:54;;;;;;;169.40;158.47;;;1.50;99.90;;;;;;5044391;28;20190;-77
2023/12/27 05:33:20;;;;;;;177.17;165.50;;;1.50;99.90;;;;;;5042554;28;20085;-77
2023/12/27 05:35:46;;;;;;;186.00;174.30;;;1.50;99.90;;;;;;5039131;28;20044;-76
2023/12/27 05:38:12;;;;;;;250.47;234.63;;;1.50;99.90;;;;;;5039717;28;20052;-76
2023/12/27 05:40:38;;;;;;;180.03;169.03;;;1.50;99.90;;;;;;5029527;28;20922;-77
2023/12/27 05:43:04;;;;;;;146.90;138.07;;;1.50;99.90;;;;;;5039346;28;20115;-76
2023/12/27 05:45:30;;;;;;;138.77;130.27;;;1.50;99.90;;;;;;5043348;28;20124;-76
2023/12/27 05:47:55;;;;;;;162.77;153.07;;;1.60;99.90;;;;;;5045627;28;20481;-77
2023/12/27 05:50:21;;;;;;;171.73;160.93;;;1.60;99.90;;;;;;5029398;28;20052;-77
2023/12/27 05:52:47;;;;;;;206.67;194.00;;;1.60;99.90;;;;;;5043254;28;20044;-77
2023/12/27 05:55:13;;;;;;;200.05;187.48;;;1.60;99.90;;;;;;5030158;28;20048;-77
2023/12/27 05:57:39;;;;;;;164.25;154.63;;;1.60;99.90;;;;;;5025135;28;20452;-77
2023/12/27 06:00:06;;;;;;;188.87;177.70;;;1.70;99.90;;;;;;5023717;28;20255;-77
2023/12/27 06:02:33;;;;;;;280.55;262.15;;;1.70;99.90;;;;;;5045764;28;20052;-77
2023/12/27 06:04:59;;;;;;;171.82;161.15;;;1.70;99.90;;;;;;5028436;28;20048;-77
2023/12/27 06:07:24;;;;;;;231.60;216.87;;;1.70;99.90;;;;;;5029148;28;20045;-77
2023/12/27 06:09:51;;;;;;;197.27;184.60;;;1.70;99.90;;;;;;5028827;28;20044;-77
2023/12/27 06:12:17;;;;;;;187.15;175.57;;;1.80;99.90;;;;;;5038495;28;20504;-77
2023/12/27 06:14:42;;;;;;;146.60;137.83;;;1.80;99.90;;;;;;5043994;28;20132;-77
2023/12/27 06:17:08;;;;;;;173.20;162.60;;;1.80;99.90;;;;;;5041340;28;20287;-77
2023/12/27 06:19:37;;;;;;;186.43;174.57;;;1.80;99.90;;;;;;5040367;28;20052;-76
2023/12/27 06:22:03;;;;;;;178.13;167.13;;;1.80;99.90;;;;;;5039459;28;20049;-76
2023/12/27 06:24:30;;;;;;;196.57;184.43;;;1.80;99.90;;;;;;5029653;28;20616;-76
2023/12/27 06:26:55;;;;;;;168.23;158.10;;;1.80;99.90;;;;;;5047236;28;20066;-76
2023/12/27 06:29:21;;;;;;;286.47;267.57;;;1.80;99.90;;;;;;5032895;28;20138;-76
2023/12/27 06:31:47;;;;;;;185.90;174.17;;;1.90;99.90;;;;;;5048376;28;20489;-76
2023/12/27 06:34:14;;;;;;;202.85;189.73;;;1.90;99.90;;;;;;5043637;28;20045;-76
2023/12/27 06:36:40;;;;;;;373.02;346.60;;;1.90;99.90;;;;;;5030466;28;20052;-76
2023/12/27 06:39:06;;;;;;;329.73;306.93;;;2.00;99.90;;;;;;5049654;28;20071;-76
2023/12/27 06:41:35;;;;;;;223.23;208.95;;;2.10;99.90;;;;;;5050196;28;20037;-75
2023/12/27 06:44:01;;;;;;;200.48;188.25;;;2.10;99.90;;;;;;5031171;28;20029;-76
2023/12/27 06:46:27;;;;;;;331.43;308.43;;;2.10;99.90;;;;;;5022365;28;20044;-76
2023/12/27 06:48:53;;;;;;;215.93;202.27;;;2.10;99.90;;;;;;5024091;28;20432;-76
2023/12/27 06:51:19;;;;;;;210.80;196.83;;;2.10;99.90;;;;;;5047408;28;20119;-76
2023/12/27 06:53:44;;;;;;;229.80;215.57;;;2.20;99.90;;;;;;5048303;28;20072;-76
2023/12/27 06:56:10;;;;;;;210.73;197.63;;;2.10;99.90;;;;;;5036116;28;20042;-76
2023/12/27 06:58:36;;;;;;;305.70;284.87;;;2.20;99.90;;;;;;5044186;28;20042;-75
2023/12/27 07:01:02;;;;;;;253.38;236.20;;;2.20;99.90;;;;;;5046783;28;20921;-76
2023/12/27 07:03:28;;;;;;;275.53;258.13;;;2.20;99.90;;;;;;5044557;28;20059;-75
2023/12/27 07:05:54;;;;;;;266.07;248.27;;;2.20;99.90;;;;;;5039212;28;20040;-76
2023/12/27 07:08:19;;;;;;;261.30;244.27;;;2.30;99.90;;;;;;5045769;28;20043;-75
2023/12/27 07:10:45;;;;;;;263.50;246.90;;;2.30;99.90;;;;;;5048505;28;20040;-75
2023/12/27 07:13:11;;;;;;;311.23;289.93;;;2.30;99.90;;;;;;5038351;28;20095;-75
2023/12/27 07:15:37;;;;;;;211.87;198.77;;;2.40;99.90;;;;;;5032812;28;20726;-76
2023/12/27 07:18:02;;;;;;;217.43;202.80;;;2.40;99.90;;;;;;5031703;28;20657;-75
2023/12/27 07:20:28;;;;;;;212.13;199.90;;;2.40;99.90;;;;;;5042121;28;20052;-75
2023/12/27 07:22:56;;;;;;;215.53;202.33;;;2.40;99.90;;;;;;5023342;28;20041;-75
2023/12/27 07:25:22;;;;;;;232.65;217.77;;;2.40;99.90;;;;;;5042055;28;20079;-75
2023/12/27 07:27:47;;;;;;;207.33;193.53;;;2.50;99.90;;;;;;5041805;28;20045;-75
2023/12/27 07:30:13;;;;;;;239.13;224.27;;;2.40;99.90;;;;;;5026276;28;20038;-75
2023/12/27 07:32:39;;;;;;;248.52;232.55;;;2.50;99.90;;;;;;5041275;28;20476;-75
2023/12/27 07:35:05;;;;;;;359.47;333.70;;;2.50;99.90;;;;;;5039818;28;20034;-75
2023/12/27 07:37:31;;;;;;;230.53;215.97;;;2.50;99.90;;;;;;5045275;28;20037;-75
2023/12/27 07:39:57;;;;;;;326.23;303.27;;;2.50;99.90;;;;;;5035505;28;20406;-75
2023/12/27 07:42:24;;;;;;;229.57;213.87;;;2.50;99.90;;;;;;5025973;28;20048;-75
2023/12/27 07:44:50;;;;;;;274.17;255.82;;;2.60;99.90;;;;;;5020855;28;20086;-75
2023/12/27 07:47:16;;;;;;;254.43;237.45;;;2.60;99.90;;;;;;5044021;28;20516;-75
2023/12/27 07:49:42;;;;;;;252.05;235.70;;;2.70;99.90;;;;;;5039216;28;20114;-75
2023/12/27 07:52:08;;;;;;;206.60;193.47;;;2.70;99.90;;;;;;5046886;28;20033;-75
2023/12/27 07:54:37;;;;;;;206.90;194.07;;;2.70;99.90;;;;;;5044804;28;20045;-75
2023/12/27 07:57:03;;;;;;;260.85;243.82;;;2.80;99.90;;;;;;5026808;28;20472;-75
2023/12/27 07:59:31;;;;;;;181.53;170.93;;;2.80;99.90;;;;;;5040887;28;20064;-75
2023/12/27 08:01:56;;;;;;;241.50;225.73;;;2.90;99.90;;;;;;5041812;28;20037;-75
2023/12/27 08:04:22;;;;;;;248.87;232.87;;;2.90;99.90;;;;;;5028293;28;20048;-75
2023/12/27 08:06:49;;;;;;;258.00;241.40;;;2.90;99.90;;;;;;5046750;28;20275;-75
2023/12/27 08:09:15;;;;;;;326.77;303.63;;;2.90;99.90;;;;;;5044835;28;20055;-75
2023/12/27 08:11:41;;;;;;;254.73;237.98;;;2.90;99.90;;;;;;5045163;28;20080;-75
2023/12/27 08:14:07;;;;;;;258.53;241.87;;;3.00;99.90;;;;;;5025770;28;20071;-75
2023/12/27 08:16:32;;;;;;;262.93;246.60;;;3.00;99.90;;;;;;5028629;28;20082;-75
2023/12/27 08:18:58;;;;;;;181.87;170.93;;;3.00;99.90;;;;;;5040255;28;20182;-75
2023/12/27 08:21:24;;;;;;;301.33;280.33;;;3.10;99.90;;;;;;5026728;28;20049;-75
2023/12/27 08:23:50;;;;;;;402.92;373.27;;;3.10;99.90;;;;;;5042020;28;20144;-75
2023/12/27 08:26:16;;;;;;;266.90;249.67;;;3.10;99.90;;;;;;5057189;28;20484;-75
2023/12/27 08:28:41;;;;;;;320.90;299.47;;;3.10;99.90;;;;;;5047323;28;20048;-75
2023/12/27 08:31:07;;;;;;;252.53;236.20;;;3.20;99.90;;;;;;5040263;28;20048;-75
2023/12/27 08:33:36;;;;;;;257.13;241.30;;;3.20;99.90;;;;;;5022642;28;20379;-75
2023/12/27 08:36:02;;;;;;;304.67;284.33;;;3.20;99.90;;;;;;5046001;28;20072;-76
2023/12/27 08:38:28;;;;;;;263.70;246.70;;;3.30;99.90;;;;;;5027230;28;20055;-75
2023/12/27 08:40:54;;;;;;;286.42;267.48;;;3.30;99.90;;;;;;5023140;28;20124;-75
2023/12/27 08:43:20;;;;;;;353.37;328.83;;;3.30;99.90;;;;;;5044853;28;20395;-75
2023/12/27 08:45:49;;;;;;;421.73;388.67;;;3.40;99.90;;;;;;5041492;28;20036;-76
2023/12/27 08:48:14;;;;;;;229.38;214.93;;;3.40;99.90;;;;;;5022369;28;20099;-75
2023/12/27 08:50:41;;;;;;;270.50;253.70;;;3.40;99.90;;;;;;5022667;28;20032;-75
2023/12/27 08:53:07;;;;;;;387.25;357.95;;;3.40;99.90;;;;;;5052268;28;20497;-75
2023/12/27 08:55:33;;;;;;;354.08;329.35;;;3.40;99.90;;;;;;5050684;28;20370;-75
2023/12/27 08:57:59;;;;;;;324.38;302.38;;;3.40;99.90;;;;;;5034043;28;20061;-75
2023/12/27 09:00:24;;;;;;;254.87;239.10;;;3.50;99.90;;;;;;5029473;28;20106;-75
2023/12/27 09:02:50;;;;;;;272.93;255.93;;;3.50;99.90;;;;;;5046627;28;20029;-75
2023/12/27 09:05:16;;;;;;;254.63;238.40;;;3.50;99.90;;;;;;5047061;28;20047;-75
2023/12/27 09:07:41;;;;;;;249.07;233.70;;;3.50;99.90;;;;;;5033889;28;20033;-75
2023/12/27 09:10:07;;;;;;;267.23;249.73;;;3.50;99.90;;;;;;5056819;28;20044;-76
2023/12/27 09:12:33;;;;;;;314.70;294.57;;;3.60;99.90;;;;;;5026934;28;20493;-75
2023/12/27 09:14:59;;;;;;;376.63;350.10;;;3.60;99.90;;;;;;5047155;28;20051;-75
2023/12/27 09:17:24;;;;;;;354.67;329.50;;;3.60;99.90;;;;;;5041876;28;20601;-75
2023/12/27 09:19:50;;;;;;;323.97;301.23;;;3.70;99.90;;;;;;5040157;28;20084;-76
2023/12/27 09:22:16;;;;;;;340.67;316.33;;;3.70;99.90;;;;;;5026701;28;20058;-75
2023/12/27 09:24:41;;;;;;;252.13;235.63;;;3.70;99.90;;;;;;5022434;28;20045;-75
2023/12/27 09:27:07;;;;;;;297.73;278.20;;;3.70;99.90;;;;;;5041008;28;20037;-75
2023/12/27 09:29:33;;;;;;;324.75;302.70;;;3.80;99.90;;;;;;5043055;28;20571;-76
2023/12/27 09:31:59;;;;;;;275.23;257.77;;;3.80;99.90;;;;;;5043688;28;20041;-75
2023/12/27 09:34:25;;;;;;;271.70;253.60;;;3.80;99.90;;;;;;5025141;28;20045;-75
2023/12/27 09:36:51;;;;;;;265.63;247.83;;;3.80;99.90;;;;;;5026798;28;20045;-75
2023/12/27 09:39:16;;;;;;;318.83;297.00;;;3.80;99.90;;;;;;5027103;28;20041;-75
2023/12/27 09:41:43;;;;;;;290.60;271.97;;;3.90;99.90;;;;;;5042777;28;20125;-75
2023/12/27 09:44:13;;;;;;;324.13;302.70;;;3.90;99.90;;;;;;5041550;28;20045;-75
2023/12/27 09:46:39;;;;;;;377.77;351.13;;;3.90;99.90;;;;;;5028198;28;20540;-74
2023/12/27 09:49:08;;;;;;;311.15;289.42;;;3.90;99.90;;;;;;5028555;28;20037;-74
2023/12/27 09:51:35;;;;;;;444.65;411.30;;;3.90;99.90;;;;;;5041905;28;20076;-75
2023/12/27 09:54:01;;;;;;;390.10;361.30;;;4.00;99.90;;;;;;5026285;28;20041;-75
2023/12/27 09:56:30;;;;;;;257.00;240.90;;;4.00;99.90;;;;;;5028203;28;20033;-75
2023/12/27 09:58:58;;;;;;;411.65;381.20;;;4.10;99.90;;;;;;5026044;28;20099;-75
2023/12/27 10:01:25;;;;;;;263.13;246.07;;;4.10;99.90;;;;;;5028806;28;20044;-75
2023/12/27 10:04:06;;;;;;;335.45;313.27;;;4.20;99.90;;;;;;5045481;28;20033;-75
2023/12/27 10:06:44;;;;;;;311.00;290.52;;;4.20;99.90;;;;;;5031066;28;20370;-75
2023/12/27 10:09:13;;;;;;;345.25;321.45;;;4.30;99.90;;;;;;5052520;28;20519;-75
2023/12/27 10:11:41;;;;;;;342.25;318.25;;;4.30;99.90;;;;;;5057089;28;20486;-75
2023/12/27 10:14:11;;;;;;;336.70;312.50;;;4.40;99.90;;;;;;5049214;28;20051;-76
2023/12/27 10:16:37;;;;;;;320.45;298.38;;;4.40;99.90;;;;;;5034784;28;20529;-76
2023/12/27 10:19:07;;;;;;;367.70;341.13;;;4.50;99.90;;;;;;5045888;28;20036;-75
2023/12/27 10:21:52;;;;;;;345.92;321.10;;;4.50;99.90;;;;;;5047236;28;20056;-75
2023/12/27 10:24:17;;;;;;;345.17;321.77;;;4.50;99.90;;;;;;5030364;28;20154;-75
2023/12/27 10:26:43;;;;;;;389.77;360.93;;;4.50;99.90;;;;;;5045172;28;20104;-76
2023/12/27 10:29:09;;;;;;;362.87;336.17;;;4.50;99.90;;;;;;5042898;28;20563;-75
2023/12/27 10:31:34;;;;;;;348.33;323.17;;;4.50;99.90;;;;;;5028917;28;20488;-76
2023/12/27 10:34:02;;;;;;;371.53;344.93;;;4.50;99.90;;;;;;5020729;28;20077;-76
2023/12/27 10:36:30;;;;;;;368.80;342.27;;;4.50;99.90;;;;;;5051792;28;20049;-76
2023/12/27 10:38:56;;;;;;;391.15;360.95;;;4.50;99.90;;;;;;5033503;28;20132;-76
2023/12/27 10:41:22;;;;;;;303.27;282.90;;;4.50;99.90;;;;;;5047580;28;20041;-76
2023/12/27 10:43:50;;;;;;;337.00;313.38;;;4.50;99.90;;;;;;5048385;28;20094;-75
2023/12/27 10:46:17;;;;;;;344.60;319.65;;;4.50;99.90;;;;;;5027139;28;20043;-75
2023/12/27 10:48:47;;;;;;;421.58;390.27;;;4.50;99.90;;;;;;5041533;28;20072;-74
2023/12/27 10:51:14;;;;;;;380.52;353.13;;;4.50;99.90;;;;;;5032899;28;20052;-74
2023/12/27 10:53:45;;;;;;;435.00;401.70;;;4.50;99.90;;;;;;5044161;28;20493;-75
2023/12/27 10:56:12;;;;;;;446.52;414.45;;;4.50;99.90;;;;;;5055958;28;20063;-75
2023/12/27 10:58:43;;;;;;;523.13;482.20;;;4.50;99.90;;;;;;5051890;28;20090;-75
2023/12/27 11:01:09;;;;;;;399.42;370.25;;;4.50;99.90;;;;;;5033408;28;20044;-75
2023/12/27 11:03:37;;;;;;;351.63;324.58;;;4.50;99.90;;;;;;5030395;28;20051;-76
2023/12/27 11:06:05;;;;;;;408.88;378.05;;;4.60;99.90;;;;;;5029379;28;20033;-75
2023/12/27 11:08:34;;;;;;;373.35;345.88;;;4.60;99.90;;;;;;5045009;28;20440;-75
2023/12/27 11:11:03;;;;;;;433.90;401.83;;;4.60;99.90;;;;;;5037573;28;20045;-75
2023/12/27 11:13:32;;;;;;;442.83;409.98;;;4.60;99.90;;;;;;5021917;28;20049;-75
2023/12/27 11:16:00;;;;;;;385.73;355.38;;;4.60;99.90;;;;;;5049256;28;20167;-75
2023/12/27 11:18:29;;;;;;;387.98;357.60;;;4.60;99.90;;;;;;5049049;28;20567;-75
2023/12/27 11:20:56;;;;;;;324.15;301.58;;;4.50;99.90;;;;;;5048569;28;20060;-75
2023/12/27 11:23:23;;;;;;;392.10;364.17;;;4.50;99.90;;;;;;5054784;28;20033;-76
2023/12/27 11:25:52;;;;;;;338.25;313.20;;;4.50;99.90;;;;;;5050591;28;20037;-76
2023/12/27 11:28:18;;;;;;;422.85;390.98;;;4.50;99.90;;;;;;5032000;28;20116;-76
2023/12/27 11:30:46;;;;;;;361.77;336.17;;;4.60;99.90;;;;;;5032537;28;20048;-75
2023/12/27 11:33:26;;;;;;;422.00;390.13;;;4.60;99.90;;;;;;5052295;28;20048;-75
2023/12/27 11:35:52;;;;;;;452.42;418.85;;;4.60;99.90;;;;;;5050691;28;20203;-76
2023/12/27 11:38:20;;;;;;;376.80;349.67;;;4.60;99.90;;;;;;5048731;28;20080;-75
2023/12/27 11:40:47;;;;;;;354.40;328.10;;;4.60;99.90;;;;;;5049186;28;20515;-75
2023/12/27 11:43:21;;;;;;;353.27;328.70;;;4.60;99.90;;;;;;5045815;28;20397;-75
2023/12/27 11:46:06;;;;;;;308.38;287.65;;;4.70;99.90;;;;;;5033712;28;20037;-75
2023/12/27 11:48:41;;;;;;;346.42;321.90;;;4.70;99.90;;;;;;5031014;28;20527;-75
2023/12/27 11:51:35;;;;;;;365.92;339.10;;;4.70;99.90;;;;;;5032385;28;20080;-76
2023/12/27 11:54:03;;;;;;;416.73;385.58;;;4.70;99.90;;;;;;5032566;28;20455;-76
2023/12/27 11:56:31;;;;;;;388.98;360.95;;;4.80;99.90;;;;;;5031693;28;20052;-75
2023/12/27 11:58:59;;;;;;;452.75;417.90;;;4.80;99.90;;;;;;5051861;28;20044;-76
2023/12/27 12:01:31;;;;;;;334.13;311.55;;;4.80;99.90;;;;;;5022187;28;20439;-75
2023/12/27 12:04:38;;;;;;;568.95;517.13;;;4.80;99.90;;;;;;5046003;28;20075;-74
2023/12/27 12:07:25;;;;;;;407.95;377.33;;;4.90;99.90;;;;;;5043225;28;20044;-73
2023/12/27 12:09:51;;;;;;;303.60;283.42;;;4.90;99.90;;;;;;5044060;28;20135;-76
2023/12/27 12:12:19;;;;;;;517.75;475.27;;;4.90;99.90;;;;;;5031935;28;20154;-76
2023/12/27 12:14:45;;;;;;;403.85;374.45;;;4.90;99.90;;;;;;5042048;28;20124;-75
2023/12/27 12:17:13;;;;;;;393.23;364.45;;;4.90;99.90;;;;;;5026128;28;20032;-75
2023/12/27 12:19:39;;;;;;;561.85;516.63;;;5.00;99.90;;;;;;5046803;28;20041;-76